sensor_id;sensor_type;location;lat;lon;timestamp;pressure;altitude;pressure_sealevel;temperature;humidity
11124;BME280;5616;42.692;23.312;2023-02-12T00:01:38;96116.13;;;1.94;48.11
11124;BME280;5616;42.692;23.312;2023-02-12T00:04:06;96120.91;;;1.98;48.21
11124;BME280;5616;42.692;23.312;2023-02-12T00:06:33;96128.34;;;2.01;47.64
11124;BME280;5616;42.692;23.312;2023-02-12T00:09:00;96131.00;;;2.00;47.84
11124;BME280;5616;42.692;23.312;2023-02-12T00:11:28;96120.50;;;2.04;47.72
11124;BME280;5616;42.692;23.312;2023-02-12T00:13:56;96129.84;;;2.16;47.20
11124;BME280;5616;42.692;23.312;2023-02-12T00:16:25;96121.75;;;1.86;48.41
11124;BME280;5616;42.692;23.312;2023-02-12T00:18:54;96132.94;;;1.96;47.39
11124;BME280;5616;42.692;23.312;2023-02-12T00:21:23;96131.53;;;2.05;48.11
11124;BME280;5616;42.692;23.312;2023-02-12T00:23:50;96121.00;;;2.09;47.01
11124;BME280;5616;42.692;23.312;2023-02-12T00:26:18;96127.94;;;2.07;47.49
11124;BME280;5616;42.692;23.312;2023-02-12T00:28:48;96127.84;;;2.09;47.83
11124;BME280;5616;42.692;23.312;2023-02-12T00:31:17;96125.41;;;2.07;48.75
11124;BME280;5616;42.692;23.312;2023-02-12T00:33:45;96128.44;;;2.12;48.17
11124;BME280;5616;42.692;23.312;2023-02-12T00:36:13;96118.97;;;2.14;47.95
11124;BME280;5616;42.692;23.312;2023-02-12T00:38:42;96108.28;;;2.09;47.51
11124;BME280;5616;42.692;23.312;2023-02-12T00:41:10;96102.16;;;2.12;47.09
11124;BME280;5616;42.692;23.312;2023-02-12T00:43:37;96104.41;;;2.04;48.41
11124;BME280;5616;42.692;23.312;2023-02-12T00:46:04;96110.94;;;2.08;48.01
11124;BME280;5616;42.692;23.312;2023-02-12T00:50:58;96090.31;;;2.23;48.50
11124;BME280;5616;42.692;23.312;2023-02-12T00:53:27;96085.22;;;2.23;46.78
11124;BME280;5616;42.692;23.312;2023-02-12T00:55:55;96073.19;;;2.25;48.33
11124;BME280;5616;42.692;23.312;2023-02-12T00:58:22;96083.50;;;2.24;47.17
11124;BME280;5616;42.692;23.312;2023-02-12T01:00:49;96077.78;;;2.20;47.39
11124;BME280;5616;42.692;23.312;2023-02-12T01:03:16;96069.13;;;2.23;47.80
11124;BME280;5616;42.692;23.312;2023-02-12T01:05:43;96069.44;;;2.18;46.75
11124;BME280;5616;42.692;23.312;2023-02-12T01:08:11;96070.56;;;2.14;47.51
11124;BME280;5616;42.692;23.312;2023-02-12T01:10:38;96073.94;;;2.15;47.71
11124;BME280;5616;42.692;23.312;2023-02-12T01:13:11;96078.00;;;2.17;48.44
11124;BME280;5616;42.692;23.312;2023-02-12T01:15:38;96078.63;;;2.21;47.91
11124;BME280;5616;42.692;23.312;2023-02-12T01:18:05;96082.69;;;2.23;48.79
11124;BME280;5616;42.692;23.312;2023-02-12T01:20:32;96079.41;;;2.21;48.42
11124;BME280;5616;42.692;23.312;2023-02-12T01:22:59;96052.94;;;2.11;47.82
11124;BME280;5616;42.692;23.312;2023-02-12T01:25:26;96082.50;;;2.01;49.70
11124;BME280;5616;42.692;23.312;2023-02-12T01:27:54;96080.38;;;2.08;49.07
11124;BME280;5616;42.692;23.312;2023-02-12T01:30:22;96079.88;;;1.90;48.50
11124;BME280;5616;42.692;23.312;2023-02-12T01:32:50;96086.91;;;1.99;49.52
11124;BME280;5616;42.692;23.312;2023-02-12T01:35:17;96076.91;;;1.96;49.01
11124;BME280;5616;42.692;23.312;2023-02-12T01:37:44;96082.00;;;1.96;49.51
11124;BME280;5616;42.692;23.312;2023-02-12T01:40:14;96070.72;;;2.00;50.11
11124;BME280;5616;42.692;23.312;2023-02-12T01:42:41;96063.94;;;2.12;49.66
11124;BME280;5616;42.692;23.312;2023-02-12T01:48:16;96057.13;;;2.12;49.42
11124;BME280;5616;42.692;23.312;2023-02-12T01:50:45;96052.53;;;2.17;49.55
11124;BME280;5616;42.692;23.312;2023-02-12T01:53:12;96042.94;;;2.21;48.75
11124;BME280;5616;42.692;23.312;2023-02-12T01:55:46;96051.81;;;2.15;49.73
11124;BME280;5616;42.692;23.312;2023-02-12T01:58:14;96038.38;;;2.13;48.88
11124;BME280;5616;42.692;23.312;2023-02-12T02:00:41;96055.78;;;2.19;49.67
11124;BME280;5616;42.692;23.312;2023-02-12T02:03:08;96053.34;;;2.18;49.04
11124;BME280;5616;42.692;23.312;2023-02-12T02:05:41;96053.66;;;2.01;50.07
11124;BME280;5616;42.692;23.312;2023-02-12T02:08:09;96052.03;;;2.12;49.72
11124;BME280;5616;42.692;23.312;2023-02-12T02:10:36;96054.69;;;1.98;50.56
11124;BME280;5616;42.692;23.312;2023-02-12T02:13:04;96063.06;;;2.00;50.61
11124;BME280;5616;42.692;23.312;2023-02-12T02:15:50;96060.03;;;1.82;51.54
11124;BME280;5616;42.692;23.312;2023-02-12T02:18:23;96053.75;;;1.63;52.38
11124;BME280;5616;42.692;23.312;2023-02-12T02:21:23;96065.75;;;1.36;52.78
11124;BME280;5616;42.692;23.312;2023-02-12T02:24:23;96053.13;;;1.34;53.37
11124;BME280;5616;42.692;23.312;2023-02-12T02:27:17;96057.50;;;1.45;53.53
11124;BME280;5616;42.692;23.312;2023-02-12T02:30:17;96049.66;;;1.35;53.22
11124;BME280;5616;42.692;23.312;2023-02-12T02:32:57;96050.66;;;1.33;53.95
11124;BME280;5616;42.692;23.312;2023-02-12T02:35:31;96052.72;;;1.40;54.09
11124;BME280;5616;42.692;23.312;2023-02-12T02:38:08;96049.25;;;1.54;53.33
11124;BME280;5616;42.692;23.312;2023-02-12T02:40:41;96046.31;;;1.60;53.31
11124;BME280;5616;42.692;23.312;2023-02-12T02:43:16;96054.44;;;1.65;53.50
11124;BME280;5616;42.692;23.312;2023-02-12T02:45:48;96059.34;;;1.68;53.14
11124;BME280;5616;42.692;23.312;2023-02-12T02:48:19;96061.06;;;1.67;54.38
11124;BME280;5616;42.692;23.312;2023-02-12T02:53:38;96067.06;;;1.54;54.26
11124;BME280;5616;42.692;23.312;2023-02-12T02:56:11;96061.47;;;1.61;54.40
11124;BME280;5616;42.692;23.312;2023-02-12T02:58:42;96066.03;;;1.69;53.63
11124;BME280;5616;42.692;23.312;2023-02-12T03:01:13;96064.72;;;1.51;54.38
11124;BME280;5616;42.692;23.312;2023-02-12T03:03:48;96064.13;;;1.47;55.19
11124;BME280;5616;42.692;23.312;2023-02-12T03:06:21;96076.50;;;1.27;55.25
11124;BME280;5616;42.692;23.312;2023-02-12T03:08:55;96072.75;;;1.32;55.35
11124;BME280;5616;42.692;23.312;2023-02-12T03:11:25;96066.56;;;1.49;55.02
11124;BME280;5616;42.692;23.312;2023-02-12T03:13:56;96070.53;;;1.53;54.74
11124;BME280;5616;42.692;23.312;2023-02-12T03:16:27;96071.44;;;1.52;54.96
11124;BME280;5616;42.692;23.312;2023-02-12T03:19:01;96062.19;;;1.38;55.19
11124;BME280;5616;42.692;23.312;2023-02-12T03:21:33;96061.06;;;1.42;54.87
11124;BME280;5616;42.692;23.312;2023-02-12T03:24:10;96047.63;;;1.53;54.21
11124;BME280;5616;42.692;23.312;2023-02-12T03:26:42;96057.91;;;1.64;54.54
11124;BME280;5616;42.692;23.312;2023-02-12T03:29:10;96047.00;;;1.62;54.92
11124;BME280;5616;42.692;23.312;2023-02-12T03:31:48;96043.75;;;1.60;55.00
11124;BME280;5616;42.692;23.312;2023-02-12T03:34:25;96049.75;;;1.46;54.77
11124;BME280;5616;42.692;23.312;2023-02-12T03:37:00;96046.19;;;1.49;55.97
11124;BME280;5616;42.692;23.312;2023-02-12T03:39:30;96047.84;;;1.50;55.27
11124;BME280;5616;42.692;23.312;2023-02-12T03:42:03;96041.59;;;1.66;55.13
11124;BME280;5616;42.692;23.312;2023-02-12T03:44:44;96039.34;;;1.74;54.68
11124;BME280;5616;42.692;23.312;2023-02-12T03:47:20;96043.72;;;1.85;55.01
11124;BME280;5616;42.692;23.312;2023-02-12T03:49:54;96046.75;;;1.90;53.95
11124;BME280;5616;42.692;23.312;2023-02-12T03:52:24;96045.25;;;1.88;54.79
11124;BME280;5616;42.692;23.312;2023-02-12T03:54:51;96048.00;;;1.97;53.76
11124;BME280;5616;42.692;23.312;2023-02-12T03:57:19;96045.75;;;2.05;53.69
11124;BME280;5616;42.692;23.312;2023-02-12T03:59:47;96048.28;;;2.05;53.71
11124;BME280;5616;42.692;23.312;2023-02-12T04:02:17;96047.25;;;2.08;52.83
11124;BME280;5616;42.692;23.312;2023-02-12T04:04:45;96041.44;;;2.06;53.10
11124;BME280;5616;42.692;23.312;2023-02-12T04:07:13;96040.41;;;2.08;53.11
11124;BME280;5616;42.692;23.312;2023-02-12T04:09:40;96045.28;;;2.11;52.61
11124;BME280;5616;42.692;23.312;2023-02-12T04:12:25;96038.38;;;2.13;53.04
11124;BME280;5616;42.692;23.312;2023-02-12T04:15:05;96046.59;;;2.17;54.01
11124;BME280;5616;42.692;23.312;2023-02-12T04:17:46;96044.06;;;2.17;53.56
11124;BME280;5616;42.692;23.312;2023-02-12T04:20:22;96059.97;;;2.20;53.72
11124;BME280;5616;42.692;23.312;2023-02-12T04:22:54;96060.78;;;2.21;53.73
11124;BME280;5616;42.692;23.312;2023-02-12T04:25:38;96065.09;;;2.08;53.07
11124;BME280;5616;42.692;23.312;2023-02-12T04:28:11;96067.69;;;2.19;53.81
11124;BME280;5616;42.692;23.312;2023-02-12T04:30:44;96061.34;;;2.24;53.97
11124;BME280;5616;42.692;23.312;2023-02-12T04:33:18;96058.22;;;2.21;53.53
11124;BME280;5616;42.692;23.312;2023-02-12T04:35:50;96072.16;;;2.28;52.78
11124;BME280;5616;42.692;23.312;2023-02-12T04:38:22;96059.84;;;2.22;54.14
11124;BME280;5616;42.692;23.312;2023-02-12T04:40:51;96061.47;;;2.23;53.94
11124;BME280;5616;42.692;23.312;2023-02-12T04:43:26;96060.25;;;2.28;53.60
11124;BME280;5616;42.692;23.312;2023-02-12T04:45:53;96061.75;;;2.31;53.88
11124;BME280;5616;42.692;23.312;2023-02-12T04:48:21;96069.91;;;2.36;52.64
11124;BME280;5616;42.692;23.312;2023-02-12T04:50:48;96072.81;;;2.42;53.53
11124;BME280;5616;42.692;23.312;2023-02-12T04:53:15;96070.50;;;2.39;53.36
11124;BME280;5616;42.692;23.312;2023-02-12T04:55:42;96074.59;;;2.29;53.25
11124;BME280;5616;42.692;23.312;2023-02-12T04:58:09;96079.28;;;2.35;52.87
11124;BME280;5616;42.692;23.312;2023-02-12T05:00:36;96077.34;;;2.39;53.75
11124;BME280;5616;42.692;23.312;2023-02-12T05:03:03;96081.28;;;2.43;53.06
11124;BME280;5616;42.692;23.312;2023-02-12T05:05:31;96077.00;;;2.43;52.89
11124;BME280;5616;42.692;23.312;2023-02-12T05:07:58;96081.00;;;2.47;53.62
11124;BME280;5616;42.692;23.312;2023-02-12T05:10:25;96084.94;;;2.52;53.50
11124;BME280;5616;42.692;23.312;2023-02-12T05:12:52;96087.97;;;2.57;52.36
11124;BME280;5616;42.692;23.312;2023-02-12T05:15:20;96094.44;;;2.50;53.25
11124;BME280;5616;42.692;23.312;2023-02-12T05:17:47;96090.03;;;2.52;53.38
11124;BME280;5616;42.692;23.312;2023-02-12T05:20:14;96088.09;;;2.55;54.72
11124;BME280;5616;42.692;23.312;2023-02-12T05:22:42;96091.44;;;2.56;54.53
11124;BME280;5616;42.692;23.312;2023-02-12T05:25:09;96092.47;;;2.53;53.39
11124;BME280;5616;42.692;23.312;2023-02-12T05:27:36;96095.13;;;2.52;53.30
11124;BME280;5616;42.692;23.312;2023-02-12T05:30:03;96101.09;;;2.39;53.79
11124;BME280;5616;42.692;23.312;2023-02-12T05:32:30;96111.06;;;2.42;53.54
11124;BME280;5616;42.692;23.312;2023-02-12T05:34:57;96110.25;;;2.29;53.54
11124;BME280;5616;42.692;23.312;2023-02-12T05:37:24;96107.91;;;2.39;54.33
11124;BME280;5616;42.692;23.312;2023-02-12T05:39:52;96104.88;;;2.34;55.00
11124;BME280;5616;42.692;23.312;2023-02-12T05:42:19;96115.25;;;2.43;55.36
11124;BME280;5616;42.692;23.312;2023-02-12T05:44:46;96116.75;;;2.46;54.87
11124;BME280;5616;42.692;23.312;2023-02-12T05:47:13;96114.00;;;2.49;55.61
11124;BME280;5616;42.692;23.312;2023-02-12T05:49:39;96127.56;;;2.50;56.75
11124;BME280;5616;42.692;23.312;2023-02-12T05:52:07;96125.94;;;2.48;56.45
11124;BME280;5616;42.692;23.312;2023-02-12T05:54:34;96126.34;;;2.42;56.92
11124;BME280;5616;42.692;23.312;2023-02-12T05:57:02;96136.00;;;1.76;59.98
11124;BME280;5616;42.692;23.312;2023-02-12T05:59:29;96130.69;;;1.66;62.22
11124;BME280;5616;42.692;23.312;2023-02-12T06:01:55;96136.31;;;1.84;62.06
11124;BME280;5616;42.692;23.312;2023-02-12T06:04:24;96131.31;;;1.95;62.19
11124;BME280;5616;42.692;23.312;2023-02-12T06:06:53;96132.41;;;2.04;62.41
11124;BME280;5616;42.692;23.312;2023-02-12T06:09:20;96136.09;;;2.12;61.30
11124;BME280;5616;42.692;23.312;2023-02-12T06:11:47;96133.13;;;2.18;61.26
11124;BME280;5616;42.692;23.312;2023-02-12T06:14:17;96135.19;;;1.88;62.40
11124;BME280;5616;42.692;23.312;2023-02-12T06:16:45;96137.03;;;1.73;63.71
11124;BME280;5616;42.692;23.312;2023-02-12T06:19:12;96139.72;;;1.45;65.82
11124;BME280;5616;42.692;23.312;2023-02-12T06:21:39;96149.81;;;1.47;66.13
11124;BME280;5616;42.692;23.312;2023-02-12T06:24:06;96145.19;;;1.78;65.93
11124;BME280;5616;42.692;23.312;2023-02-12T06:26:33;96148.41;;;1.93;66.12
11124;BME280;5616;42.692;23.312;2023-02-12T06:29:00;96145.78;;;2.07;65.75
11124;BME280;5616;42.692;23.312;2023-02-12T06:31:29;96147.09;;;1.75;67.59
11124;BME280;5616;42.692;23.312;2023-02-12T06:33:59;96136.31;;;1.84;68.75
11124;BME280;5616;42.692;23.312;2023-02-12T06:36:26;96143.53;;;1.90;69.67
11124;BME280;5616;42.692;23.312;2023-02-12T06:38:53;96145.88;;;1.80;69.99
11124;BME280;5616;42.692;23.312;2023-02-12T06:41:20;96144.66;;;1.99;70.93
11124;BME280;5616;42.692;23.312;2023-02-12T06:43:48;96149.16;;;2.08;69.78
11124;BME280;5616;42.692;23.312;2023-02-12T06:46:15;96143.72;;;2.12;70.69
11124;BME280;5616;42.692;23.312;2023-02-12T06:48:43;96147.41;;;2.21;70.20
11124;BME280;5616;42.692;23.312;2023-02-12T06:51:13;96144.72;;;2.35;70.05
11124;BME280;5616;42.692;23.312;2023-02-12T06:53:40;96142.91;;;2.24;70.27
11124;BME280;5616;42.692;23.312;2023-02-12T06:56:09;96150.66;;;2.23;70.08
11124;BME280;5616;42.692;23.312;2023-02-12T06:58:37;96148.44;;;2.18;70.42
11124;BME280;5616;42.692;23.312;2023-02-12T07:01:08;96150.78;;;1.83;72.72
11124;BME280;5616;42.692;23.312;2023-02-12T07:03:38;96154.75;;;2.00;72.31
11124;BME280;5616;42.692;23.312;2023-02-12T07:06:08;96154.97;;;1.97;71.80
11124;BME280;5616;42.692;23.312;2023-02-12T07:08:35;96152.19;;;1.88;72.11
11124;BME280;5616;42.692;23.312;2023-02-12T07:11:04;96153.50;;;2.06;71.78
11124;BME280;5616;42.692;23.312;2023-02-12T07:13:31;96149.44;;;2.16;71.62
11124;BME280;5616;42.692;23.312;2023-02-12T07:16:02;96149.63;;;2.25;71.41
11124;BME280;5616;42.692;23.312;2023-02-12T07:18:30;96153.59;;;2.29;70.41
11124;BME280;5616;42.692;23.312;2023-02-12T07:20:57;96156.13;;;2.42;70.34
11124;BME280;5616;42.692;23.312;2023-02-12T07:23:25;96157.13;;;2.52;70.62
11124;BME280;5616;42.692;23.312;2023-02-12T07:25:55;96160.59;;;2.51;69.49
11124;BME280;5616;42.692;23.312;2023-02-12T07:28:22;96152.84;;;2.53;69.89
11124;BME280;5616;42.692;23.312;2023-02-12T07:30:49;96153.84;;;2.63;68.69
11124;BME280;5616;42.692;23.312;2023-02-12T07:33:16;96165.03;;;2.73;69.62
11124;BME280;5616;42.692;23.312;2023-02-12T07:35:43;96149.72;;;2.73;68.91
11124;BME280;5616;42.692;23.312;2023-02-12T07:38:10;96169.91;;;2.76;68.20
11124;BME280;5616;42.692;23.312;2023-02-12T07:40:38;96147.81;;;2.64;69.18
11124;BME280;5616;42.692;23.312;2023-02-12T07:43:05;96177.06;;;2.71;68.48
11124;BME280;5616;42.692;23.312;2023-02-12T07:45:34;96185.63;;;2.70;69.06
11124;BME280;5616;42.692;23.312;2023-02-12T07:48:01;96179.41;;;2.61;69.51
11124;BME280;5616;42.692;23.312;2023-02-12T07:50:28;96188.53;;;2.53;69.62
11124;BME280;5616;42.692;23.312;2023-02-12T07:52:54;96175.19;;;2.36;70.09
11124;BME280;5616;42.692;23.312;2023-02-12T07:55:21;96177.44;;;2.28;71.33
11124;BME280;5616;42.692;23.312;2023-02-12T07:57:49;96175.59;;;2.30;71.44
11124;BME280;5616;42.692;23.312;2023-02-12T08:00:17;96179.16;;;2.40;70.78
11124;BME280;5616;42.692;23.312;2023-02-12T08:02:50;96181.50;;;2.43;69.80
11124;BME280;5616;42.692;23.312;2023-02-12T08:05:17;96179.78;;;2.44;70.90
11124;BME280;5616;42.692;23.312;2023-02-12T08:07:43;96175.78;;;2.53;69.92
11124;BME280;5616;42.692;23.312;2023-02-12T08:10:10;96170.47;;;2.56;69.91
11124;BME280;5616;42.692;23.312;2023-02-12T08:12:37;96172.75;;;2.47;70.75
11124;BME280;5616;42.692;23.312;2023-02-12T08:15:06;96175.28;;;2.47;70.94
11124;BME280;5616;42.692;23.312;2023-02-12T08:17:33;96176.28;;;2.58;71.67
11124;BME280;5616;42.692;23.312;2023-02-12T08:20:00;96169.97;;;2.63;70.63
11124;BME280;5616;42.692;23.312;2023-02-12T08:22:27;96176.78;;;2.63;70.53
11124;BME280;5616;42.692;23.312;2023-02-12T08:24:53;96179.81;;;2.68;69.74
11124;BME280;5616;42.692;23.312;2023-02-12T08:27:20;96185.75;;;2.68;70.24
11124;BME280;5616;42.692;23.312;2023-02-12T08:29:47;96187.97;;;2.73;70.48
11124;BME280;5616;42.692;23.312;2023-02-12T08:32:15;96193.50;;;2.67;70.36
11124;BME280;5616;42.692;23.312;2023-02-12T08:34:42;96195.34;;;2.65;71.06
11124;BME280;5616;42.692;23.312;2023-02-12T08:37:09;96195.13;;;2.68;70.50
11124;BME280;5616;42.692;23.312;2023-02-12T08:39:35;96195.41;;;2.76;71.17
11124;BME280;5616;42.692;23.312;2023-02-12T08:42:02;96201.91;;;2.80;70.01
11124;BME280;5616;42.692;23.312;2023-02-12T08:44:30;96196.81;;;2.80;70.72
11124;BME280;5616;42.692;23.312;2023-02-12T08:46:57;96210.06;;;2.85;70.39
11124;BME280;5616;42.692;23.312;2023-02-12T08:49:27;96207.63;;;2.83;70.23
11124;BME280;5616;42.692;23.312;2023-02-12T08:51:55;96209.59;;;2.67;70.24
11124;BME280;5616;42.692;23.312;2023-02-12T08:54:24;96208.94;;;2.53;70.64
11124;BME280;5616;42.692;23.312;2023-02-12T08:56:53;96213.63;;;2.46;71.08
11124;BME280;5616;42.692;23.312;2023-02-12T08:59:20;96215.63;;;2.54;71.34
11124;BME280;5616;42.692;23.312;2023-02-12T09:01:49;96210.50;;;2.66;70.94
11124;BME280;5616;42.692;23.312;2023-02-12T09:04:21;96220.91;;;2.76;71.20
11124;BME280;5616;42.692;23.312;2023-02-12T09:06:50;96234.97;;;2.81;70.53
11124;BME280;5616;42.692;23.312;2023-02-12T09:09:17;96227.91;;;2.85;70.65
11124;BME280;5616;42.692;23.312;2023-02-12T09:11:45;96230.19;;;2.77;71.42
11124;BME280;5616;42.692;23.312;2023-02-12T09:14:13;96229.97;;;2.80;71.41
11124;BME280;5616;42.692;23.312;2023-02-12T09:16:40;96240.63;;;2.74;71.79
11124;BME280;5616;42.692;23.312;2023-02-12T09:19:10;96232.44;;;2.81;71.66
11124;BME280;5616;42.692;23.312;2023-02-12T09:21:37;96229.50;;;2.62;71.90
11124;BME280;5616;42.692;23.312;2023-02-12T09:24:06;96234.47;;;2.64;72.36
11124;BME280;5616;42.692;23.312;2023-02-12T09:26:33;96234.28;;;2.67;72.01
11124;BME280;5616;42.692;23.312;2023-02-12T09:29:03;96238.25;;;2.83;72.23
11124;BME280;5616;42.692;23.312;2023-02-12T09:31:31;96235.19;;;2.78;71.79
11124;BME280;5616;42.692;23.312;2023-02-12T09:33:59;96228.19;;;2.93;72.52
11124;BME280;5616;42.692;23.312;2023-02-12T09:36:27;96229.38;;;3.13;71.37
11124;BME280;5616;42.692;23.312;2023-02-12T09:38:54;96244.53;;;3.27;71.62
11124;BME280;5616;42.692;23.312;2023-02-12T09:41:37;96234.94;;;3.30;70.13
11124;BME280;5616;42.692;23.312;2023-02-12T09:44:10;96245.56;;;2.88;71.57
11124;BME280;5616;42.692;23.312;2023-02-12T09:46:45;96246.69;;;2.96;70.84
11124;BME280;5616;42.692;23.312;2023-02-12T09:49:20;96253.94;;;2.77;71.95
11124;BME280;5616;42.692;23.312;2023-02-12T09:51:52;96260.47;;;2.94;71.87
11124;BME280;5616;42.692;23.312;2023-02-12T09:54:21;96236.66;;;2.57;72.80
11124;BME280;5616;42.692;23.312;2023-02-12T09:56:53;96257.38;;;2.53;73.00
11124;BME280;5616;42.692;23.312;2023-02-12T09:59:27;96254.19;;;2.62;73.44
11124;BME280;5616;42.692;23.312;2023-02-12T10:01:57;96261.06;;;2.97;72.28
11124;BME280;5616;42.692;23.312;2023-02-12T10:04:24;96256.88;;;2.96;71.28
11124;BME280;5616;42.692;23.312;2023-02-12T10:07:00;96252.88;;;2.92;71.92
11124;BME280;5616;42.692;23.312;2023-02-12T10:09:41;96251.59;;;3.23;71.72
11124;BME280;5616;42.692;23.312;2023-02-12T10:12:22;96251.75;;;3.56;70.12
11124;BME280;5616;42.692;23.312;2023-02-12T10:15:14;96266.25;;;3.80;68.99
11124;BME280;5616;42.692;23.312;2023-02-12T10:17:46;96260.06;;;3.95;68.26
11124;BME280;5616;42.692;23.312;2023-02-12T10:20:47;96260.75;;;3.97;67.99
11124;BME280;5616;42.692;23.312;2023-02-12T10:23:39;96262.47;;;3.96;67.17
11124;BME280;5616;42.692;23.312;2023-02-12T10:26:17;96252.16;;;4.09;67.19
11124;BME280;5616;42.692;23.312;2023-02-12T10:28:46;96252.44;;;4.28;67.20
11124;BME280;5616;42.692;23.312;2023-02-12T10:31:16;96253.75;;;4.45;66.00
11124;BME280;5616;42.692;23.312;2023-02-12T10:33:47;96260.63;;;4.66;66.02
11124;BME280;5616;42.692;23.312;2023-02-12T10:36:22;96254.25;;;4.61;65.94
11124;BME280;5616;42.692;23.312;2023-02-12T10:38:57;96255.06;;;4.50;65.21
11124;BME280;5616;42.692;23.312;2023-02-12T10:41:29;96256.41;;;4.21;67.13
11124;BME280;5616;42.692;23.312;2023-02-12T10:43:58;96258.47;;;4.27;66.33
11124;BME280;5616;42.692;23.312;2023-02-12T10:46:27;96253.41;;;4.49;65.84
11124;BME280;5616;42.692;23.312;2023-02-12T10:48:57;96260.06;;;4.74;65.52
11124;BME280;5616;42.692;23.312;2023-02-12T10:51:44;96244.44;;;4.99;64.15
11124;BME280;5616;42.692;23.312;2023-02-12T10:54:37;96253.84;;;5.21;62.95
11124;BME280;5616;42.692;23.312;2023-02-12T10:57:09;96234.72;;;5.36;62.71
11124;BME280;5616;42.692;23.312;2023-02-12T10:59:38;96248.94;;;5.40;61.99
11124;BME280;5616;42.692;23.312;2023-02-12T11:02:21;96249.06;;;5.27;62.68
11124;BME280;5616;42.692;23.312;2023-02-12T11:04:49;96265.28;;;5.06;62.83
11124;BME280;5616;42.692;23.312;2023-02-12T11:07:16;96263.63;;;5.05;62.80
11124;BME280;5616;42.692;23.312;2023-02-12T11:09:44;96258.75;;;5.02;63.01
11124;BME280;5616;42.692;23.312;2023-02-12T11:12:19;96260.53;;;4.79;64.01
11124;BME280;5616;42.692;23.312;2023-02-12T11:14:50;96266.34;;;4.81;64.01
11124;BME280;5616;42.692;23.312;2023-02-12T11:17:23;96256.19;;;5.02;62.94
11124;BME280;5616;42.692;23.312;2023-02-12T11:20:03;96251.38;;;5.19;62.83
11124;BME280;5616;42.692;23.312;2023-02-12T11:22:30;96258.38;;;5.17;62.86
11124;BME280;5616;42.692;23.312;2023-02-12T11:25:00;96241.81;;;5.32;63.06
11124;BME280;5616;42.692;23.312;2023-02-12T11:27:29;96248.53;;;5.55;62.26
11124;BME280;5616;42.692;23.312;2023-02-12T11:30:14;96251.41;;;5.62;61.53
11124;BME280;5616;42.692;23.312;2023-02-12T11:32:41;96247.69;;;5.66;61.70
11124;BME280;5616;42.692;23.312;2023-02-12T11:35:13;96226.91;;;5.37;61.92
11124;BME280;5616;42.692;23.312;2023-02-12T11:37:44;96238.16;;;5.57;62.00
11124;BME280;5616;42.692;23.312;2023-02-12T11:40:19;96245.03;;;5.77;61.55
11124;BME280;5616;42.692;23.312;2023-02-12T11:42:50;96244.47;;;5.85;60.64
11124;BME280;5616;42.692;23.312;2023-02-12T11:45:21;96242.09;;;5.93;60.83
11124;BME280;5616;42.692;23.312;2023-02-12T11:47:51;96243.44;;;5.76;60.86
11124;BME280;5616;42.692;23.312;2023-02-12T11:50:24;96242.38;;;5.47;61.55
11124;BME280;5616;42.692;23.312;2023-02-12T11:52:56;96236.81;;;5.74;61.88
11124;BME280;5616;42.692;23.312;2023-02-12T11:55:26;96242.91;;;5.93;60.35
11124;BME280;5616;42.692;23.312;2023-02-12T11:58:01;96252.69;;;5.99;60.72
11124;BME280;5616;42.692;23.312;2023-02-12T12:00:33;96248.69;;;6.06;59.76
11124;BME280;5616;42.692;23.312;2023-02-12T12:03:06;96242.63;;;6.07;60.21
11124;BME280;5616;42.692;23.312;2023-02-12T12:05:39;96246.25;;;6.05;60.46
11124;BME280;5616;42.692;23.312;2023-02-12T12:08:13;96246.13;;;6.06;60.54
11124;BME280;5616;42.692;23.312;2023-02-12T12:10:46;96252.84;;;5.44;61.98
11124;BME280;5616;42.692;23.312;2023-02-12T12:13:18;96242.44;;;5.56;61.55
11124;BME280;5616;42.692;23.312;2023-02-12T12:15:54;96249.66;;;5.63;61.27
11124;BME280;5616;42.692;23.312;2023-02-12T12:18:44;96247.50;;;5.79;61.37
11124;BME280;5616;42.692;23.312;2023-02-12T12:21:35;96244.38;;;5.75;61.51
11124;BME280;5616;42.692;23.312;2023-02-12T12:24:08;96244.34;;;5.86;61.51
11124;BME280;5616;42.692;23.312;2023-02-12T12:26:39;96247.13;;;5.94;61.36
11124;BME280;5616;42.692;23.312;2023-02-12T12:29:12;96255.72;;;5.93;61.26
11124;BME280;5616;42.692;23.312;2023-02-12T12:31:45;96259.94;;;5.94;60.28
11124;BME280;5616;42.692;23.312;2023-02-12T12:34:16;96261.88;;;6.02;60.81
11124;BME280;5616;42.692;23.312;2023-02-12T12:37:08;96265.78;;;5.85;60.77
11124;BME280;5616;42.692;23.312;2023-02-12T12:39:49;96258.38;;;5.71;60.79
11124;BME280;5616;42.692;23.312;2023-02-12T12:46:06;96256.25;;;5.76;61.43
11124;BME280;5616;42.692;23.312;2023-02-12T12:48:47;96264.56;;;5.69;62.24
11124;BME280;5616;42.692;23.312;2023-02-12T12:51:31;96266.78;;;5.62;61.95
11124;BME280;5616;42.692;23.312;2023-02-12T12:54:11;96261.47;;;5.75;61.63
11124;BME280;5616;42.692;23.312;2023-02-12T12:56:56;96269.16;;;5.86;60.89
11124;BME280;5616;42.692;23.312;2023-02-12T12:59:55;96267.81;;;5.71;61.75
11124;BME280;5616;42.692;23.312;2023-02-12T13:05:59;96281.31;;;5.73;61.92
11124;BME280;5616;42.692;23.312;2023-02-12T13:08:46;96281.34;;;5.50;62.07
11124;BME280;5616;42.692;23.312;2023-02-12T13:11:27;96277.25;;;5.05;63.64
11124;BME280;5616;42.692;23.312;2023-02-12T13:14:06;96284.56;;;4.99;63.84
11124;BME280;5616;42.692;23.312;2023-02-12T13:16:39;96266.91;;;4.95;64.34
11124;BME280;5616;42.692;23.312;2023-02-12T13:19:15;96283.97;;;5.17;64.06
11124;BME280;5616;42.692;23.312;2023-02-12T13:21:51;96286.22;;;5.00;64.25
11124;BME280;5616;42.692;23.312;2023-02-12T13:24:26;96281.44;;;5.06;64.58
11124;BME280;5616;42.692;23.312;2023-02-12T13:26:57;96280.38;;;5.31;63.77
11124;BME280;5616;42.692;23.312;2023-02-12T13:29:27;96289.41;;;5.46;62.83
11124;BME280;5616;42.692;23.312;2023-02-12T13:31:59;96290.41;;;5.66;62.88
11124;BME280;5616;42.692;23.312;2023-02-12T13:34:30;96286.66;;;5.70;62.08
11124;BME280;5616;42.692;23.312;2023-02-12T13:37:01;96278.97;;;5.70;61.62
11124;BME280;5616;42.692;23.312;2023-02-12T13:39:31;96285.25;;;5.77;61.52
11124;BME280;5616;42.692;23.312;2023-02-12T13:42:11;96285.41;;;5.64;62.17
11124;BME280;5616;42.692;23.312;2023-02-12T13:44:46;96278.00;;;5.50;62.59
11124;BME280;5616;42.692;23.312;2023-02-12T13:47:21;96295.03;;;5.29;62.93